sensor_id;sensor_type;location;lat;lon;timestamp;P1;durP1;ratioP1;P2;durP2;ratioP2
30185;SDS011;31152;49.190;8.122;2023-01-24T00:01:03;22.77;;;11.32;;
30185;SDS011;31152;49.190;8.122;2023-01-24T00:03:29;21.58;;;11.35;;
30185;SDS011;31152;49.190;8.122;2023-01-24T00:05:56;23.30;;;11.40;;
30185;SDS011;31152;49.190;8.122;2023-01-24T00:08:25;25.90;;;11.45;;
30185;SDS011;31152;49.190;8.122;2023-01-24T00:10:59;23.55;;;11.90;;
30185;SDS011;31152;49.190;8.122;2023-01-24T00:13:26;22.95;;;11.85;;
30185;SDS011;31152;49.190;8.122;2023-01-24T00:16:03;22.80;;;11.90;;
30185;SDS011;31152;49.190;8.122;2023-01-24T00:18:34;24.10;;;11.68;;
30185;SDS011;31152;49.190;8.122;2023-01-24T00:21:02;20.92;;;11.27;;
30185;SDS011;31152;49.190;8.122;2023-01-24T00:23:36;20.48;;;10.77;;
30185;SDS011;31152;49.190;8.122;2023-01-24T00:26:03;21.67;;;10.65;;
30185;SDS011;31152;49.190;8.122;2023-01-24T00:28:30;23.42;;;11.95;;
30185;SDS011;31152;49.190;8.122;2023-01-24T00:30:59;23.45;;;11.32;;
30185;SDS011;31152;49.190;8.122;2023-01-24T00:33:26;24.50;;;11.57;;
30185;SDS011;31152;49.190;8.122;2023-01-24T00:35:53;23.42;;;11.32;;
30185;SDS011;31152;49.190;8.122;2023-01-24T00:38:20;21.92;;;11.15;;
30185;SDS011;31152;49.190;8.122;2023-01-24T00:40:50;24.42;;;11.80;;
30185;SDS011;31152;49.190;8.122;2023-01-24T00:43:17;23.65;;;11.20;;
30185;SDS011;31152;49.190;8.122;2023-01-24T00:45:46;20.63;;;10.80;;
30185;SDS011;31152;49.190;8.122;2023-01-24T00:48:13;20.98;;;10.90;;
30185;SDS011;31152;49.190;8.122;2023-01-24T00:50:40;22.65;;;11.82;;
30185;SDS011;31152;49.190;8.122;2023-01-24T00:53:07;23.77;;;12.57;;
30185;SDS011;31152;49.190;8.122;2023-01-24T00:55:34;23.77;;;10.90;;
30185;SDS011;31152;49.190;8.122;2023-01-24T00:58:07;23.13;;;11.27;;
30185;SDS011;31152;49.190;8.122;2023-01-24T01:00:33;22.25;;;11.07;;
30185;SDS011;31152;49.190;8.122;2023-01-24T01:03:00;22.52;;;11.75;;
30185;SDS011;31152;49.190;8.122;2023-01-24T01:05:27;24.58;;;11.45;;
30185;SDS011;31152;49.190;8.122;2023-01-24T01:07:54;25.40;;;12.38;;
30185;SDS011;31152;49.190;8.122;2023-01-24T01:10:20;23.05;;;11.30;;
30185;SDS011;31152;49.190;8.122;2023-01-24T01:12:47;22.85;;;11.88;;
30185;SDS011;31152;49.190;8.122;2023-01-24T01:15:14;24.17;;;12.00;;
30185;SDS011;31152;49.190;8.122;2023-01-24T01:17:40;24.60;;;12.05;;
30185;SDS011;31152;49.190;8.122;2023-01-24T01:20:10;22.90;;;11.38;;
30185;SDS011;31152;49.190;8.122;2023-01-24T01:22:37;22.13;;;11.90;;
30185;SDS011;31152;49.190;8.122;2023-01-24T01:25:04;24.45;;;12.40;;
30185;SDS011;31152;49.190;8.122;2023-01-24T01:27:31;25.40;;;11.75;;
30185;SDS011;31152;49.190;8.122;2023-01-24T01:29:57;22.80;;;10.75;;
30185;SDS011;31152;49.190;8.122;2023-01-24T01:32:24;22.65;;;11.32;;
30185;SDS011;31152;49.190;8.122;2023-01-24T01:34:53;22.38;;;11.18;;
30185;SDS011;31152;49.190;8.122;2023-01-24T01:37:19;22.98;;;11.63;;
30185;SDS011;31152;49.190;8.122;2023-01-24T01:39:49;24.48;;;11.85;;
30185;SDS011;31152;49.190;8.122;2023-01-24T01:42:15;24.25;;;11.90;;
30185;SDS011;31152;49.190;8.122;2023-01-24T01:44:43;26.25;;;11.70;;
30185;SDS011;31152;49.190;8.122;2023-01-24T01:49:59;23.83;;;11.32;;
30185;SDS011;31152;49.190;8.122;2023-01-24T01:52:28;21.70;;;11.38;;
30185;SDS011;31152;49.190;8.122;2023-01-24T01:55:03;20.20;;;10.90;;
30185;SDS011;31152;49.190;8.122;2023-01-24T01:57:34;22.73;;;10.57;;
30185;SDS011;31152;49.190;8.122;2023-01-24T02:00:21;25.13;;;11.85;;
30185;SDS011;31152;49.190;8.122;2023-01-24T02:02:59;24.70;;;11.63;;
30185;SDS011;31152;49.190;8.122;2023-01-24T02:05:48;21.55;;;10.45;;
30185;SDS011;31152;49.190;8.122;2023-01-24T02:08:17;22.20;;;11.68;;
30185;SDS011;31152;49.190;8.122;2023-01-24T02:10:52;24.88;;;12.13;;
30185;SDS011;31152;49.190;8.122;2023-01-24T02:13:42;23.25;;;11.13;;
30185;SDS011;31152;49.190;8.122;2023-01-24T02:16:10;28.25;;;11.88;;
30185;SDS011;31152;49.190;8.122;2023-01-24T02:18:39;26.58;;;11.77;;
30185;SDS011;31152;49.190;8.122;2023-01-24T02:21:11;24.17;;;11.68;;
30185;SDS011;31152;49.190;8.122;2023-01-24T02:26:21;22.75;;;11.75;;
30185;SDS011;31152;49.190;8.122;2023-01-24T02:28:50;24.23;;;11.50;;
30185;SDS011;31152;49.190;8.122;2023-01-24T02:31:29;22.40;;;11.38;;
30185;SDS011;31152;49.190;8.122;2023-01-24T02:34:16;22.50;;;11.25;;
30185;SDS011;31152;49.190;8.122;2023-01-24T02:36:45;22.98;;;12.20;;
30185;SDS011;31152;49.190;8.122;2023-01-24T02:39:17;24.23;;;11.93;;
30185;SDS011;31152;49.190;8.122;2023-01-24T02:41:49;23.20;;;11.35;;
30185;SDS011;31152;49.190;8.122;2023-01-24T02:44:28;23.33;;;11.20;;
30185;SDS011;31152;49.190;8.122;2023-01-24T02:47:40;22.60;;;11.25;;
30185;SDS011;31152;49.190;8.122;2023-01-24T02:50:13;25.08;;;12.50;;
30185;SDS011;31152;49.190;8.122;2023-01-24T02:52:43;23.02;;;11.57;;
30185;SDS011;31152;49.190;8.122;2023-01-24T02:55:30;24.88;;;11.75;;
30185;SDS011;31152;49.190;8.122;2023-01-24T02:57:57;24.15;;;12.15;;
30185;SDS011;31152;49.190;8.122;2023-01-24T03:00:36;21.38;;;11.32;;
30185;SDS011;31152;49.190;8.122;2023-01-24T03:03:08;23.08;;;12.02;;
30185;SDS011;31152;49.190;8.122;2023-01-24T03:05:35;24.40;;;11.48;;
30185;SDS011;31152;49.190;8.122;2023-01-24T03:08:22;23.40;;;12.68;;
30185;SDS011;31152;49.190;8.122;2023-01-24T03:10:50;23.85;;;11.32;;
30185;SDS011;31152;49.190;8.122;2023-01-24T03:13:18;21.92;;;11.82;;
30185;SDS011;31152;49.190;8.122;2023-01-24T03:16:04;26.52;;;12.10;;
30185;SDS011;31152;49.190;8.122;2023-01-24T03:18:50;24.35;;;11.77;;
30185;SDS011;31152;49.190;8.122;2023-01-24T03:21:36;24.17;;;12.02;;
30185;SDS011;31152;49.190;8.122;2023-01-24T03:24:22;24.05;;;12.23;;
30185;SDS011;31152;49.190;8.122;2023-01-24T03:27:08;27.80;;;13.57;;
30185;SDS011;31152;49.190;8.122;2023-01-24T03:29:54;25.48;;;12.45;;
30185;SDS011;31152;49.190;8.122;2023-01-24T03:32:39;23.38;;;12.02;;
30185;SDS011;31152;49.190;8.122;2023-01-24T03:35:25;23.75;;;12.23;;
30185;SDS011;31152;49.190;8.122;2023-01-24T03:37:52;24.77;;;12.48;;
30185;SDS011;31152;49.190;8.122;2023-01-24T03:40:37;26.38;;;13.52;;
30185;SDS011;31152;49.190;8.122;2023-01-24T03:43:04;23.85;;;12.32;;
30185;SDS011;31152;49.190;8.122;2023-01-24T03:45:35;27.13;;;13.20;;
30185;SDS011;31152;49.190;8.122;2023-01-24T03:48:07;26.05;;;13.57;;
30185;SDS011;31152;49.190;8.122;2023-01-24T03:50:42;25.52;;;12.80;;
30185;SDS011;31152;49.190;8.122;2023-01-24T03:53:28;26.95;;;13.00;;
30185;SDS011;31152;49.190;8.122;2023-01-24T03:55:58;26.95;;;13.15;;
30185;SDS011;31152;49.190;8.122;2023-01-24T03:58:27;25.88;;;12.98;;
30185;SDS011;31152;49.190;8.122;2023-01-24T04:00:57;26.48;;;12.85;;
30185;SDS011;31152;49.190;8.122;2023-01-24T04:03:25;27.65;;;12.80;;
30185;SDS011;31152;49.190;8.122;2023-01-24T04:05:51;23.98;;;12.52;;
30185;SDS011;31152;49.190;8.122;2023-01-24T04:08:20;27.45;;;13.60;;
30185;SDS011;31152;49.190;8.122;2023-01-24T04:10:47;24.58;;;12.88;;
30185;SDS011;31152;49.190;8.122;2023-01-24T04:13:14;25.85;;;13.35;;
30185;SDS011;31152;49.190;8.122;2023-01-24T04:15:40;26.52;;;13.30;;
30185;SDS011;31152;49.190;8.122;2023-01-24T04:18:10;24.65;;;12.45;;
30185;SDS011;31152;49.190;8.122;2023-01-24T04:20:39;26.48;;;12.48;;
30185;SDS011;31152;49.190;8.122;2023-01-24T04:23:07;24.75;;;13.15;;
30185;SDS011;31152;49.190;8.122;2023-01-24T04:25:34;28.23;;;13.48;;
30185;SDS011;31152;49.190;8.122;2023-01-24T04:28:03;25.20;;;13.13;;
30185;SDS011;31152;49.190;8.122;2023-01-24T04:30:30;25.40;;;13.05;;
30185;SDS011;31152;49.190;8.122;2023-01-24T04:32:59;23.38;;;12.10;;
30185;SDS011;31152;49.190;8.122;2023-01-24T04:35:30;25.10;;;12.73;;
30185;SDS011;31152;49.190;8.122;2023-01-24T04:38:00;25.42;;;13.13;;
30185;SDS011;31152;49.190;8.122;2023-01-24T04:40:27;26.13;;;13.27;;
30185;SDS011;31152;49.190;8.122;2023-01-24T04:42:54;28.67;;;12.65;;
30185;SDS011;31152;49.190;8.122;2023-01-24T04:45:22;25.77;;;12.75;;
30185;SDS011;31152;49.190;8.122;2023-01-24T04:47:53;25.92;;;12.38;;
30185;SDS011;31152;49.190;8.122;2023-01-24T04:50:20;25.00;;;12.77;;
30185;SDS011;31152;49.190;8.122;2023-01-24T04:52:50;25.23;;;12.95;;
30185;SDS011;31152;49.190;8.122;2023-01-24T04:55:16;25.33;;;12.65;;
30185;SDS011;31152;49.190;8.122;2023-01-24T04:57:43;23.90;;;12.00;;
30185;SDS011;31152;49.190;8.122;2023-01-24T05:00:10;27.00;;;13.02;;
30185;SDS011;31152;49.190;8.122;2023-01-24T05:02:37;24.52;;;12.77;;
30185;SDS011;31152;49.190;8.122;2023-01-24T05:05:04;24.98;;;12.43;;
30185;SDS011;31152;49.190;8.122;2023-01-24T05:07:34;25.45;;;12.07;;
30185;SDS011;31152;49.190;8.122;2023-01-24T05:10:00;24.13;;;12.35;;
30185;SDS011;31152;49.190;8.122;2023-01-24T05:12:27;22.85;;;12.15;;
30185;SDS011;31152;49.190;8.122;2023-01-24T05:14:54;25.42;;;12.23;;
30185;SDS011;31152;49.190;8.122;2023-01-24T05:17:21;21.50;;;11.82;;
30185;SDS011;31152;49.190;8.122;2023-01-24T05:19:50;22.60;;;11.95;;
30185;SDS011;31152;49.190;8.122;2023-01-24T05:22:16;25.25;;;12.30;;
30185;SDS011;31152;49.190;8.122;2023-01-24T05:24:45;23.77;;;12.02;;
30185;SDS011;31152;49.190;8.122;2023-01-24T05:27:12;26.95;;;12.38;;
30185;SDS011;31152;49.190;8.122;2023-01-24T05:29:39;22.98;;;11.40;;
30185;SDS011;31152;49.190;8.122;2023-01-24T05:32:05;22.98;;;11.77;;
30185;SDS011;31152;49.190;8.122;2023-01-24T05:34:32;25.33;;;12.25;;
30185;SDS011;31152;49.190;8.122;2023-01-24T05:36:59;24.17;;;11.82;;
30185;SDS011;31152;49.190;8.122;2023-01-24T05:39:28;27.42;;;11.90;;
30185;SDS011;31152;49.190;8.122;2023-01-24T05:41:54;23.60;;;11.43;;
30185;SDS011;31152;49.190;8.122;2023-01-24T05:44:21;23.92;;;12.23;;
30185;SDS011;31152;49.190;8.122;2023-01-24T05:46:48;22.75;;;12.10;;
30185;SDS011;31152;49.190;8.122;2023-01-24T05:49:14;21.48;;;11.63;;
30185;SDS011;31152;49.190;8.122;2023-01-24T05:51:41;24.02;;;11.80;;
30185;SDS011;31152;49.190;8.122;2023-01-24T05:54:10;26.85;;;13.05;;
30185;SDS011;31152;49.190;8.122;2023-01-24T05:56:37;23.42;;;12.15;;
30185;SDS011;31152;49.190;8.122;2023-01-24T05:59:03;26.05;;;11.60;;
30185;SDS011;31152;49.190;8.122;2023-01-24T06:01:32;24.27;;;11.95;;
30185;SDS011;31152;49.190;8.122;2023-01-24T06:03:59;24.55;;;11.38;;
30185;SDS011;31152;49.190;8.122;2023-01-24T06:06:28;26.05;;;12.70;;
30185;SDS011;31152;49.190;8.122;2023-01-24T06:08:57;24.17;;;11.52;;
30185;SDS011;31152;49.190;8.122;2023-01-24T06:11:24;25.42;;;11.65;;
30185;SDS011;31152;49.190;8.122;2023-01-24T06:13:54;24.92;;;12.10;;
30185;SDS011;31152;49.190;8.122;2023-01-24T06:16:23;23.20;;;11.77;;
30185;SDS011;31152;49.190;8.122;2023-01-24T06:18:51;24.90;;;12.10;;
30185;SDS011;31152;49.190;8.122;2023-01-24T06:26:45;26.85;;;11.88;;
30185;SDS011;31152;49.190;8.122;2023-01-24T06:29:13;26.25;;;12.60;;
30185;SDS011;31152;49.190;8.122;2023-01-24T06:34:12;23.02;;;12.65;;
30185;SDS011;31152;49.190;8.122;2023-01-24T06:39:21;28.33;;;12.15;;
30185;SDS011;31152;49.190;8.122;2023-01-24T06:41:48;24.15;;;11.70;;
30185;SDS011;31152;49.190;8.122;2023-01-24T06:44:15;22.45;;;11.15;;
30185;SDS011;31152;49.190;8.122;2023-01-24T06:46:44;23.92;;;11.85;;
30185;SDS011;31152;49.190;8.122;2023-01-24T06:49:11;24.73;;;11.18;;
30185;SDS011;31152;49.190;8.122;2023-01-24T06:51:38;24.45;;;11.52;;
30185;SDS011;31152;49.190;8.122;2023-01-24T06:54:05;23.73;;;12.13;;
30185;SDS011;31152;49.190;8.122;2023-01-24T06:56:31;26.20;;;12.00;;
30185;SDS011;31152;49.190;8.122;2023-01-24T06:58:58;23.90;;;11.85;;
30185;SDS011;31152;49.190;8.122;2023-01-24T07:01:25;22.42;;;11.13;;
30185;SDS011;31152;49.190;8.122;2023-01-24T07:03:52;22.67;;;10.73;;
30185;SDS011;31152;49.190;8.122;2023-01-24T07:06:19;22.63;;;11.20;;
30185;SDS011;31152;49.190;8.122;2023-01-24T07:08:48;24.40;;;10.98;;
30185;SDS011;31152;49.190;8.122;2023-01-24T07:11:15;20.45;;;10.95;;
30185;SDS011;31152;49.190;8.122;2023-01-24T07:13:41;23.45;;;11.55;;
30185;SDS011;31152;49.190;8.122;2023-01-24T07:16:08;24.58;;;12.30;;
30185;SDS011;31152;49.190;8.122;2023-01-24T07:18:35;21.08;;;11.10;;
30185;SDS011;31152;49.190;8.122;2023-01-24T07:21:06;27.63;;;12.13;;
30185;SDS011;31152;49.190;8.122;2023-01-24T07:23:34;24.08;;;10.75;;
30185;SDS011;31152;49.190;8.122;2023-01-24T07:26:04;22.38;;;11.88;;
30185;SDS011;31152;49.190;8.122;2023-01-24T07:28:35;23.38;;;11.20;;
30185;SDS011;31152;49.190;8.122;2023-01-24T07:31:02;23.83;;;10.90;;
30185;SDS011;31152;49.190;8.122;2023-01-24T07:33:29;23.50;;;11.45;;
30185;SDS011;31152;49.190;8.122;2023-01-24T07:35:56;22.00;;;11.20;;
30185;SDS011;31152;49.190;8.122;2023-01-24T07:38:23;23.25;;;11.20;;
30185;SDS011;31152;49.190;8.122;2023-01-24T07:40:52;24.83;;;11.48;;
30185;SDS011;31152;49.190;8.122;2023-01-24T07:43:19;23.88;;;11.60;;
30185;SDS011;31152;49.190;8.122;2023-01-24T07:45:48;22.13;;;11.35;;
30185;SDS011;31152;49.190;8.122;2023-01-24T07:48:18;29.73;;;12.10;;
30185;SDS011;31152;49.190;8.122;2023-01-24T07:50:46;40.67;;;12.93;;
30185;SDS011;31152;49.190;8.122;2023-01-24T07:53:13;22.83;;;11.05;;
30185;SDS011;31152;49.190;8.122;2023-01-24T07:55:40;20.33;;;10.88;;
30185;SDS011;31152;49.190;8.122;2023-01-24T07:58:15;21.98;;;11.93;;
30185;SDS011;31152;49.190;8.122;2023-01-24T08:00:41;23.40;;;11.85;;
30185;SDS011;31152;49.190;8.122;2023-01-24T08:03:11;28.33;;;12.80;;
30185;SDS011;31152;49.190;8.122;2023-01-24T08:05:39;22.75;;;11.32;;
30185;SDS011;31152;49.190;8.122;2023-01-24T08:08:06;23.92;;;11.30;;
30185;SDS011;31152;49.190;8.122;2023-01-24T08:10:33;24.83;;;11.90;;
30185;SDS011;31152;49.190;8.122;2023-01-24T08:13:00;27.23;;;11.70;;
30185;SDS011;31152;49.190;8.122;2023-01-24T08:15:27;26.92;;;11.63;;
30185;SDS011;31152;49.190;8.122;2023-01-24T08:17:56;26.02;;;11.75;;
30185;SDS011;31152;49.190;8.122;2023-01-24T08:20:27;23.42;;;11.73;;
30185;SDS011;31152;49.190;8.122;2023-01-24T08:22:55;25.30;;;12.30;;
30185;SDS011;31152;49.190;8.122;2023-01-24T08:25:24;23.35;;;10.52;;
30185;SDS011;31152;49.190;8.122;2023-01-24T08:27:53;23.48;;;11.70;;
30185;SDS011;31152;49.190;8.122;2023-01-24T08:30:22;26.67;;;11.45;;
30185;SDS011;31152;49.190;8.122;2023-01-24T08:33:00;22.45;;;11.45;;
30185;SDS011;31152;49.190;8.122;2023-01-24T08:35:28;25.95;;;11.95;;
30185;SDS011;31152;49.190;8.122;2023-01-24T08:37:56;22.88;;;11.77;;
30185;SDS011;31152;49.190;8.122;2023-01-24T08:40:23;22.60;;;11.50;;
30185;SDS011;31152;49.190;8.122;2023-01-24T08:42:51;25.02;;;12.30;;
30185;SDS011;31152;49.190;8.122;2023-01-24T08:45:18;24.42;;;12.15;;
30185;SDS011;31152;49.190;8.122;2023-01-24T08:47:50;27.05;;;12.60;;
30185;SDS011;31152;49.190;8.122;2023-01-24T08:50:17;20.60;;;11.00;;
30185;SDS011;31152;49.190;8.122;2023-01-24T08:52:46;24.15;;;12.52;;
30185;SDS011;31152;49.190;8.122;2023-01-24T08:55:14;22.98;;;12.23;;
30185;SDS011;31152;49.190;8.122;2023-01-24T08:57:44;23.70;;;11.93;;
30185;SDS011;31152;49.190;8.122;2023-01-24T09:00:11;25.35;;;11.93;;
30185;SDS011;31152;49.190;8.122;2023-01-24T09:02:38;27.98;;;12.52;;
30185;SDS011;31152;49.190;8.122;2023-01-24T09:05:05;26.27;;;11.73;;
30185;SDS011;31152;49.190;8.122;2023-01-24T09:07:33;24.05;;;11.90;;
30185;SDS011;31152;49.190;8.122;2023-01-24T09:10:03;23.75;;;11.75;;
30185;SDS011;31152;49.190;8.122;2023-01-24T09:12:30;26.45;;;11.77;;
30185;SDS011;31152;49.190;8.122;2023-01-24T09:15:00;27.88;;;12.98;;
30185;SDS011;31152;49.190;8.122;2023-01-24T09:17:27;42.22;;;12.90;;
30185;SDS011;31152;49.190;8.122;2023-01-24T09:20:01;30.58;;;12.43;;
30185;SDS011;31152;49.190;8.122;2023-01-24T09:22:28;37.47;;;12.15;;
30185;SDS011;31152;49.190;8.122;2023-01-24T09:24:58;30.90;;;11.95;;
30185;SDS011;31152;49.190;8.122;2023-01-24T09:27:24;44.28;;;13.15;;
30185;SDS011;31152;49.190;8.122;2023-01-24T09:29:54;33.53;;;12.55;;
30185;SDS011;31152;49.190;8.122;2023-01-24T09:32:20;26.45;;;12.38;;
30185;SDS011;31152;49.190;8.122;2023-01-24T09:34:49;24.83;;;11.90;;
30185;SDS011;31152;49.190;8.122;2023-01-24T09:37:19;23.13;;;11.80;;
30185;SDS011;31152;49.190;8.122;2023-01-24T09:39:47;23.13;;;12.10;;
30185;SDS011;31152;49.190;8.122;2023-01-24T09:42:35;25.75;;;12.30;;
30185;SDS011;31152;49.190;8.122;2023-01-24T09:45:20;31.08;;;12.27;;
30185;SDS011;31152;49.190;8.122;2023-01-24T09:47:55;25.45;;;12.13;;
30185;SDS011;31152;49.190;8.122;2023-01-24T09:50:29;28.35;;;11.82;;
30185;SDS011;31152;49.190;8.122;2023-01-24T09:55:56;27.85;;;12.98;;
30185;SDS011;31152;49.190;8.122;2023-01-24T09:58:27;26.45;;;12.00;;
30185;SDS011;31152;49.190;8.122;2023-01-24T10:01:00;23.92;;;12.10;;
30185;SDS011;31152;49.190;8.122;2023-01-24T10:03:31;24.00;;;11.88;;
30185;SDS011;31152;49.190;8.122;2023-01-24T10:06:00;24.50;;;11.88;;
30185;SDS011;31152;49.190;8.122;2023-01-24T10:17:27;25.58;;;12.30;;
30185;SDS011;31152;49.190;8.122;2023-01-24T10:20:26;25.52;;;12.60;;
30185;SDS011;31152;49.190;8.122;2023-01-24T10:23:16;24.85;;;12.52;;
30185;SDS011;31152;49.190;8.122;2023-01-24T10:26:05;28.23;;;12.73;;
30185;SDS011;31152;49.190;8.122;2023-01-24T10:28:47;27.52;;;12.35;;
30185;SDS011;31152;49.190;8.122;2023-01-24T10:31:25;27.08;;;13.13;;
30185;SDS011;31152;49.190;8.122;2023-01-24T10:34:00;28.17;;;13.05;;
30185;SDS011;31152;49.190;8.122;2023-01-24T10:36:44;26.95;;;12.52;;
30185;SDS011;31152;49.190;8.122;2023-01-24T10:39:15;33.40;;;13.07;;
30185;SDS011;31152;49.190;8.122;2023-01-24T10:41:45;26.45;;;13.00;;
30185;SDS011;31152;49.190;8.122;2023-01-24T10:44:13;24.13;;;11.88;;
30185;SDS011;31152;49.190;8.122;2023-01-24T10:49:29;26.42;;;12.40;;
30185;SDS011;31152;49.190;8.122;2023-01-24T10:54:49;28.75;;;12.93;;
30185;SDS011;31152;49.190;8.122;2023-01-24T10:57:23;23.65;;;11.50;;
30185;SDS011;31152;49.190;8.122;2023-01-24T10:59:51;24.27;;;11.80;;
30185;SDS011;31152;49.190;8.122;2023-01-24T11:02:22;29.20;;;12.20;;
30185;SDS011;31152;49.190;8.122;2023-01-24T11:05:12;26.83;;;13.23;;
30185;SDS011;31152;49.190;8.122;2023-01-24T11:07:39;26.80;;;13.20;;
30185;SDS011;31152;49.190;8.122;2023-01-24T11:12:59;29.00;;;13.30;;
30185;SDS011;31152;49.190;8.122;2023-01-24T11:15:28;24.10;;;12.35;;
30185;SDS011;31152;49.190;8.122;2023-01-24T11:17:57;26.42;;;12.35;;
30185;SDS011;31152;49.190;8.122;2023-01-24T11:20:34;29.30;;;12.88;;
30185;SDS011;31152;49.190;8.122;2023-01-24T11:23:12;23.63;;;11.68;;
30185;SDS011;31152;49.190;8.122;2023-01-24T11:25:55;27.50;;;12.93;;
30185;SDS011;31152;49.190;8.122;2023-01-24T11:28:30;30.30;;;12.85;;
30185;SDS011;31152;49.190;8.122;2023-01-24T11:31:23;27.05;;;13.00;;
30185;SDS011;31152;49.190;8.122;2023-01-24T11:48:15;26.75;;;12.77;;
30185;SDS011;31152;49.190;8.122;2023-01-24T11:53:45;28.45;;;13.98;;
30185;SDS011;31152;49.190;8.122;2023-01-24T11:59:22;26.55;;;11.98;;
30185;SDS011;31152;49.190;8.122;2023-01-24T12:07:22;26.52;;;11.98;;
30185;SDS011;31152;49.190;8.122;2023-01-24T12:12:49;28.33;;;12.45;;
30185;SDS011;31152;49.190;8.122;2023-01-24T12:18:17;27.08;;;12.73;;
30185;SDS011;31152;49.190;8.122;2023-01-24T12:21:05;25.38;;;12.20;;
30185;SDS011;31152;49.190;8.122;2023-01-24T12:26:08;26.63;;;12.32;;
30185;SDS011;31152;49.190;8.122;2023-01-24T12:31:39;28.90;;;12.35;;
30185;SDS011;31152;49.190;8.122;2023-01-24T12:34:25;25.35;;;11.77;;
30185;SDS011;31152;49.190;8.122;2023-01-24T12:37:01;25.88;;;12.23;;
30185;SDS011;31152;49.190;8.122;2023-01-24T12:42:46;22.67;;;11.55;;
30185;SDS011;31152;49.190;8.122;2023-01-24T12:45:33;25.52;;;11.82;;
30185;SDS011;31152;49.190;8.122;2023-01-24T12:59:35;27.63;;;11.60;;
30185;SDS011;31152;49.190;8.122;2023-01-24T13:04:54;33.67;;;13.55;;
30185;SDS011;31152;49.190;8.122;2023-01-24T13:12:44;25.13;;;11.88;;
30185;SDS011;31152;49.190;8.122;2023-01-24T13:18:33;28.38;;;11.60;;
30185;SDS011;31152;49.190;8.122;2023-01-24T13:31:49;25.55;;;10.90;;
30185;SDS011;31152;49.190;8.122;2023-01-24T13:34:29;26.10;;;11.25;;
30185;SDS011;31152;49.190;8.122;2023-01-24T13:36:59;23.93;;;10.87;;
30185;SDS011;31152;49.190;8.122;2023-01-24T13:39:28;25.20;;;11.55;;
30185;SDS011;31152;49.190;8.122;2023-01-24T13:42:03;27.08;;;11.27;;
30185;SDS011;31152;49.190;8.122;2023-01-24T13:44:53;24.35;;;11.65;;
30185;SDS011;31152;49.190;8.122;2023-01-24T13:47:21;27.80;;;12.32;;
30185;SDS011;31152;49.190;8.122;2023-01-24T13:54:58;22.75;;;11.20;;
30185;SDS011;31152;49.190;8.122;2023-01-24T13:57:27;24.80;;;10.75;;
30185;SDS011;31152;49.190;8.122;2023-01-24T14:02:41;19.58;;;10.32;;
30185;SDS011;31152;49.190;8.122;2023-01-24T14:10:51;23.15;;;10.65;;
30185;SDS011;31152;49.190;8.122;2023-01-24T14:21:44;21.15;;;10.57;;
30185;SDS011;31152;49.190;8.122;2023-01-24T14:24:25;21.90;;;10.77;;
30185;SDS011;31152;49.190;8.122;2023-01-24T14:26:56;21.92;;;11.43;;
30185;SDS011;31152;49.190;8.122;2023-01-24T14:29:37;20.08;;;9.73;;
30185;SDS011;31152;49.190;8.122;2023-01-24T14:32:14;23.15;;;10.73;;
30185;SDS011;31152;49.190;8.122;2023-01-24T14:37:49;21.27;;;8.95;;
30185;SDS011;31152;49.190;8.122;2023-01-24T14:42:44;16.58;;;9.50;;
30185;SDS011;31152;49.190;8.122;2023-01-24T14:45:15;21.33;;;10.15;;
30185;SDS011;31152;49.190;8.122;2023-01-24T14:47:49;18.33;;;9.60;;
30185;SDS011;31152;49.190;8.122;2023-01-24T14:50:21;19.73;;;10.30;;
30185;SDS011;31152;49.190;8.122;2023-01-24T14:52:51;19.45;;;8.98;;
30185;SDS011;31152;49.190;8.122;2023-01-24T14:58:18;19.92;;;9.95;;
30185;SDS011;31152;49.190;8.122;2023-01-24T15:00:49;25.30;;;9.73;;
30185;SDS011;31152;49.190;8.122;2023-01-24T15:03:27;25.63;;;10.15;;
30185;SDS011;31152;49.190;8.122;2023-01-24T15:08:28;17.55;;;9.15;;
30185;SDS011;31152;49.190;8.122;2023-01-24T15:11:01;20.00;;;9.82;;
30185;SDS011;31152;49.190;8.122;2023-01-24T15:16:20;20.95;;;9.63;;
30185;SDS011;31152;49.190;8.122;2023-01-24T15:18:50;21.20;;;9.18;;
30185;SDS011;31152;49.190;8.122;2023-01-24T15:21:31;20.70;;;9.98;;
30185;SDS011;31152;49.190;8.122;2023-01-24T15:24:06;16.75;;;9.32;;
30185;SDS011;31152;49.190;8.122;2023-01-24T15:27:19;21.83;;;10.05;;
30185;SDS011;31152;49.190;8.122;2023-01-24T15:29:48;22.02;;;9.50;;
30185;SDS011;31152;49.190;8.122;2023-01-24T15:35:16;23.95;;;10.10;;
30185;SDS011;31152;49.190;8.122;2023-01-24T15:40:59;19.48;;;9.57;;
30185;SDS011;31152;49.190;8.122;2023-01-24T15:43:42;20.45;;;9.65;;
30185;SDS011;31152;49.190;8.122;2023-01-24T15:54:36;22.00;;;9.40;;
30185;SDS011;31152;49.190;8.122;2023-01-24T15:57:17;20.42;;;9.55;;
30185;SDS011;31152;49.190;8.122;2023-01-24T15:59:52;19.50;;;10.02;;
30185;SDS011;31152;49.190;8.122;2023-01-24T16:02:29;23.35;;;10.00;;
30185;SDS011;31152;49.190;8.122;2023-01-24T16:04:57;22.05;;;10.27;;
30185;SDS011;31152;49.190;8.122;2023-01-24T16:07:26;23.52;;;10.93;;
30185;SDS011;31152;49.190;8.122;2023-01-24T16:09:53;20.67;;;10.32;;
30185;SDS011;31152;49.190;8.122;2023-01-24T16:12:21;29.60;;;10.52;;
30185;SDS011;31152;49.190;8.122;2023-01-24T16:14:53;29.48;;;10.43;;
30185;SDS011;31152;49.190;8.122;2023-01-24T16:17:34;20.60;;;9.88;;
30185;SDS011;31152;49.190;8.122;2023-01-24T16:20:02;24.10;;;10.63;;
30185;SDS011;31152;49.190;8.122;2023-01-24T16:22:40;20.85;;;10.60;;
30185;SDS011;31152;49.190;8.122;2023-01-24T16:25:09;24.40;;;11.23;;
30185;SDS011;31152;49.190;8.122;2023-01-24T16:27:39;23.48;;;10.18;;
30185;SDS011;31152;49.190;8.122;2023-01-24T16:30:15;22.65;;;10.23;;
30185;SDS011;31152;49.190;8.122;2023-01-24T16:32:49;21.35;;;9.65;;
30185;SDS011;31152;49.190;8.122;2023-01-24T16:35:16;21.33;;;10.45;;
30185;SDS011;31152;49.190;8.122;2023-01-24T16:37:43;21.02;;;10.40;;
30185;SDS011;31152;49.190;8.122;2023-01-24T16:40:11;22.23;;;10.65;;
30185;SDS011;31152;49.190;8.122;2023-01-24T16:42:40;22.58;;;10.25;;
30185;SDS011;31152;49.190;8.122;2023-01-24T16:45:16;24.92;;;10.70;;
30185;SDS011;31152;49.190;8.122;2023-01-24T16:47:50;20.58;;;10.82;;
30185;SDS011;31152;49.190;8.122;2023-01-24T16:50:16;24.45;;;11.07;;
30185;SDS011;31152;49.190;8.122;2023-01-24T16:52:43;21.92;;;11.20;;
30185;SDS011;31152;49.190;8.122;2023-01-24T16:55:12;21.33;;;10.68;;
30185;SDS011;31152;49.190;8.122;2023-01-24T16:57:39;26.80;;;11.57;;
30185;SDS011;31152;49.190;8.122;2023-01-24T17:00:07;25.15;;;10.32;;
30185;SDS011;31152;49.190;8.122;2023-01-24T17:02:39;23.13;;;9.65;;
30185;SDS011;31152;49.190;8.122;2023-01-24T17:05:12;21.63;;;10.77;;
30185;SDS011;31152;49.190;8.122;2023-01-24T17:07:42;22.35;;;10.60;;
30185;SDS011;31152;49.190;8.122;2023-01-24T17:10:09;24.65;;;10.55;;
30185;SDS011;31152;49.190;8.122;2023-01-24T17:12:39;24.45;;;10.82;;
30185;SDS011;31152;49.190;8.122;2023-01-24T17:15:05;22.35;;;11.23;;
30185;SDS011;31152;49.190;8.122;2023-01-24T17:17:35;20.48;;;10.38;;
30185;SDS011;31152;49.190;8.122;2023-01-24T17:20:05;22.42;;;11.57;;
30185;SDS011;31152;49.190;8.122;2023-01-24T17:22:34;26.48;;;11.23;;
30185;SDS011;31152;49.190;8.122;2023-01-24T17:25:02;26.38;;;11.65;;
30185;SDS011;31152;49.190;8.122;2023-01-24T17:27:29;22.02;;;10.70;;